Time;durP1;ratioP1;P1;durP2;ratioP2;P2;SDS_P1;SDS_P2;PMS_P1;PMS_P2;Temp;Humidity;BMP_temperature;BMP_pressure;BME280_temperature;BME280_humidity;BME280_pressure;Samples;Min_cycle;Max_cycle;Signal;HPM_P1;HPM_P2
2021/11/23 00:00:37;;;;;;;55.13;34.13;;;;;;;10.70;90.41;94818.84;5056190;28;20445;-83
2021/11/23 00:03:06;;;;;;;51.83;33.30;;;;;;;10.70;90.10;94823.25;5056441;28;20443;-83
2021/11/23 00:05:33;;;;;;;54.10;34.10;;;;;;;10.72;90.58;94816.91;5056808;28;20440;-83
2021/11/23 00:08:02;;;;;;;51.27;32.83;;;;;;;10.75;90.63;94819.28;5056322;28;20928;-83
2021/11/23 00:10:29;;;;;;;47.97;33.17;;;;;;;10.77;90.75;94825.22;5055398;28;20474;-83
2021/11/23 00:12:56;;;;;;;51.43;30.90;;;;;;;10.80;90.37;94829.38;5021033;28;20450;-83
2021/11/23 00:15:23;;;;;;;48.97;30.47;;;;;;;10.83;91.25;94831.72;5055754;28;20438;-83
2021/11/23 00:17:50;;;;;;;47.63;33.27;;;;;;;10.82;90.41;94832.69;5055836;28;20450;-83
2021/11/23 00:20:18;;;;;;;44.97;30.90;;;;;;;10.81;90.82;94829.22;5020891;28;20492;-83
2021/11/23 00:22:45;;;;;;;48.20;31.80;;;;;;;10.83;89.91;94827.31;5020934;28;20480;-83
2021/11/23 00:25:12;;;;;;;42.80;30.60;;;;;;;10.83;91.21;94829.09;5055834;28;20457;-83
2021/11/23 00:27:39;;;;;;;48.23;30.90;;;;;;;10.83;90.25;94832.56;5055900;28;20482;-83
2021/11/23 00:30:06;;;;;;;48.40;32.33;;;;;;;10.83;90.53;94834.34;5055596;28;20436;-83
2021/11/23 00:32:33;;;;;;;47.27;31.93;;;;;;;10.83;90.96;94839.59;5055831;28;20436;-83
2021/11/23 00:35:00;;;;;;;47.77;29.97;;;;;;;10.85;91.35;94829.78;5037098;28;20434;-83
2021/11/23 00:37:28;;;;;;;46.13;29.47;;;;;;;10.87;90.36;94830.50;5055387;28;20523;-83
2021/11/23 00:39:58;;;;;;;46.77;29.87;;;;;;;10.86;90.64;94832.28;5055384;28;20920;-83
2021/11/23 00:42:25;;;;;;;50.87;31.47;;;;;;;10.86;90.07;94837.53;5020852;28;20449;-83
2021/11/23 00:44:53;;;;;;;45.03;30.97;;;;;;;10.88;90.44;94837.41;5055870;28;20509;-84
2021/11/23 00:47:21;;;;;;;51.20;30.37;;;;;;;10.91;89.26;94831.88;5055089;28;20500;-83
2021/11/23 00:49:48;;;;;;;49.70;30.37;;;;;;;10.91;89.64;94831.03;5055385;28;20955;-83
2021/11/23 00:52:15;;;;;;;45.90;30.83;;;;;;;10.92;89.76;94830.91;5054987;28;20449;-83
2021/11/23 00:54:43;;;;;;;48.80;33.03;;;;;;;10.93;90.02;94829.94;5055405;28;20445;-83
2021/11/23 00:57:10;;;;;;;49.73;31.77;;;;;;;10.91;90.09;94831.88;5055288;28;20790;-83
2021/11/23 01:02:58;;;;;;;40.17;28.40;;;;;;;10.84;90.33;94836.84;5054094;28;20479;-83
2021/11/23 01:05:26;;;;;;;44.23;31.33;;;;;;;10.84;90.59;94838.63;5054743;28;20432;-83
2021/11/23 01:07:53;;;;;;;54.67;38.17;;;;;;;10.71;91.07;94841.50;5055310;28;20500;-83
2021/11/23 01:10:21;;;;;;;55.53;34.57;;;;;;;10.64;91.38;94840.34;5055043;28;20473;-83
2021/11/23 01:12:48;;;;;;;45.50;32.23;;;;;;;10.63;91.38;94830.81;5054716;28;20433;-83
2021/11/23 01:15:15;;;;;;;53.30;33.37;;;;;;;10.58;91.62;94829.53;5054677;28;20824;-83
2021/11/23 01:17:42;;;;;;;54.23;36.70;;;;;;;10.52;91.98;94833.53;5054793;28;20448;-83
2021/11/23 01:20:11;;;;;;;60.50;39.73;;;;;;;10.53;91.88;94833.41;5054711;28;20441;-83
2021/11/23 01:22:39;;;;;;;65.03;42.70;;;;;;;10.50;91.58;94838.06;5019287;28;20441;-83
2021/11/23 01:25:07;;;;;;;62.87;41.83;;;;;;;10.44;92.26;94825.50;5054709;28;20438;-84
2021/11/23 01:27:36;;;;;;;71.20;45.23;;;;;;;10.47;92.31;94822.59;5054732;28;20964;-83
2021/11/23 01:30:03;;;;;;;64.50;42.70;;;;;;;10.48;91.99;94827.72;5054344;28;20442;-83
2021/11/23 01:32:30;;;;;;;68.50;42.90;;;;;;;10.54;92.89;94834.22;5054898;28;20445;-83
2021/11/23 01:34:57;;;;;;;79.70;44.23;;;;;;;10.56;93.00;94842.78;5054498;28;20444;-83
2021/11/23 01:37:24;;;;;;;79.33;48.73;;;;;;;10.58;92.96;94840.03;5054084;28;20449;-83
2021/11/23 01:39:51;;;;;;;90.17;52.50;;;;;;;10.57;92.37;94839.22;5054315;28;20437;-83
2021/11/23 01:42:18;;;;;;;78.80;48.50;;;;;;;10.57;93.17;94838.38;5054147;28;20448;-83
2021/11/23 01:44:46;;;;;;;77.90;49.53;;;;;;;10.47;93.04;94847.03;5053960;28;20901;-83
2021/11/23 01:47:13;;;;;;;81.07;52.83;;;;;;;10.41;93.98;94842.31;5054041;28;20999;-83
2021/11/23 01:49:40;;;;;;;79.83;51.80;;;;;;;10.41;93.35;94844.13;5054897;28;20432;-83
2021/11/23 02:02:13;;;;;;;86.50;53.50;;;;;;;10.17;93.55;94849.59;5053892;28;20501;-83
2021/11/23 02:04:40;;;;;;;108.80;59.93;;;;;;;10.16;94.46;94846.16;5054129;28;20433;-83
2021/11/23 02:07:08;;;;;;;90.43;55.70;;;;;;;10.13;94.35;94850.81;5019173;28;20554;-83
2021/11/23 02:09:35;;;;;;;92.07;57.40;;;;;;;10.13;95.45;94858.69;5053824;28;20502;-83
2021/11/23 02:12:02;;;;;;;95.57;60.40;;;;;;;10.17;94.97;94852.22;5053892;28;20430;-83
2021/11/23 02:14:29;;;;;;;88.43;56.43;;;;;;;10.12;95.00;94836.88;5018941;28;20460;-83
2021/11/23 02:16:56;;;;;;;105.73;59.97;;;;;;;9.86;96.23;94836.44;5019502;28;20445;-83
2021/11/23 02:19:25;;;;;;;95.07;60.10;;;;;;;10.00;95.68;94851.00;5053516;28;20885;-83
2021/11/23 02:21:53;;;;;;;91.87;57.70;;;;;;;10.03;96.47;94837.63;5053507;28;20433;-83
2021/11/23 02:24:20;;;;;;;95.90;59.90;;;;;;;10.03;95.54;94839.41;5053777;28;20442;-83
2021/11/23 02:26:47;;;;;;;98.43;59.30;;;;;;;10.05;95.84;94848.00;5053557;28;20805;-83
2021/11/23 02:29:14;;;;;;;97.90;59.10;;;;;;;10.07;95.63;94844.28;5053354;28;20452;-83
2021/11/23 02:31:41;;;;;;;101.47;58.77;;;;;;;10.12;95.54;94838.66;5053470;28;20428;-83
2021/11/23 02:34:08;;;;;;;93.93;62.83;;;;;;;10.06;96.38;94829.50;5053256;28;20429;-83
2021/11/23 02:36:36;;;;;;;98.90;61.17;;;;;;;10.10;95.50;94836.16;5053462;28;20436;-83
2021/11/23 02:39:05;;;;;;;93.90;57.47;;;;;;;10.17;96.16;94839.13;5053228;28;20959;-83
2021/11/23 02:41:35;;;;;;;97.73;60.67;;;;;;;10.21;95.59;94844.00;5053508;28;20443;-83
2021/11/23 02:44:02;;;;;;;95.23;57.27;;;;;;;10.24;96.33;94841.13;5054005;28;20942;-83
2021/11/23 02:46:29;;;;;;;97.23;59.00;;;;;;;10.28;95.13;94838.22;5053732;28;20437;-83
2021/11/23 02:48:56;;;;;;;87.73;58.57;;;;;;;10.28;95.52;94839.06;5018599;28;20487;-83
2021/11/23 02:51:22;;;;;;;93.57;60.83;;;;;;;10.29;95.31;94837.28;5053568;28;20443;-83
2021/11/23 02:53:51;;;;;;;100.90;64.00;;;;;;;10.29;95.86;94839.91;5053253;28;20905;-83
2021/11/23 02:56:20;;;;;;;97.50;57.43;;;;;;;10.32;96.10;94835.22;5054121;28;20429;-83
2021/11/23 02:58:49;;;;;;;105.53;60.50;;;;;;;10.32;95.60;94843.09;5053189;28;20437;-83
2021/11/23 03:01:18;;;;;;;105.90;59.33;;;;;;;10.33;95.99;94852.63;5053219;28;20452;-83
2021/11/23 03:03:45;;;;;;;99.87;63.17;;;;;;;10.35;96.14;94849.84;5053170;28;20837;-83
2021/11/23 03:06:16;;;;;;;90.03;57.80;;;;;;;10.24;95.83;94853.41;5053249;28;20437;-83
2021/11/23 03:08:43;;;;;;;95.57;60.50;;;;;;;10.26;96.33;94856.72;5053071;28;20497;-83
2021/11/23 03:11:10;;;;;;;96.33;61.27;;;;;;;10.24;96.65;94853.41;5053442;28;20780;-83
2021/11/23 03:13:39;;;;;;;104.70;70.00;;;;;;;10.20;96.84;94851.97;5053360;28;20434;-83
2021/11/23 03:16:06;;;;;;;99.33;64.10;;;;;;;10.18;97.01;94840.78;5018396;28;20448;-83
2021/11/23 03:18:33;;;;;;;113.30;73.67;;;;;;;10.18;97.44;94853.88;5053238;28;20444;-83
2021/11/23 03:21:00;;;;;;;106.23;73.20;;;;;;;10.19;98.13;94852.94;5053319;28;20445;-83
2021/11/23 03:23:27;;;;;;;106.50;69.27;;;;;;;10.16;98.06;94858.44;5018520;28;20459;-83
2021/11/23 03:25:54;;;;;;;100.57;63.60;;;;;;;10.06;97.70;94866.22;5052995;28;20436;-83
2021/11/23 03:28:21;;;;;;;107.20;68.30;;;;;;;10.09;98.00;94860.72;5053273;28;20480;-84
2021/11/23 03:30:49;;;;;;;104.13;68.93;;;;;;;10.08;97.86;94863.47;5053295;28;20441;-83
2021/11/23 03:33:16;;;;;;;112.83;71.03;;;;;;;10.10;97.94;94866.78;5052967;28;20448;-84
2021/11/23 03:35:45;;;;;;;117.40;73.40;;;;;;;10.11;97.88;94869.28;5053175;28;20430;-83
2021/11/23 03:38:15;;;;;;;112.87;69.40;;;;;;;10.13;97.41;94867.38;5053325;28;20446;-83
2021/11/23 03:40:43;;;;;;;121.93;72.30;;;;;;;10.06;98.36;94868.00;5052642;28;20544;-82
2021/11/23 03:43:12;;;;;;;113.93;73.43;;;;;;;10.07;98.30;94869.66;5053011;28;20434;-83
2021/11/23 03:45:39;;;;;;;116.50;72.93;;;;;;;10.09;97.96;94871.19;5054118;28;20439;-83
2021/11/23 03:48:07;;;;;;;112.73;72.00;;;;;;;10.12;98.66;94867.47;5056961;28;20469;-83
2021/11/23 03:51:03;;;;;;;106.47;69.40;;;;;;;10.13;98.38;94879.66;5056571;28;20432;-83
2021/11/23 03:53:30;;;;;;;117.77;71.93;;;;;;;10.09;97.98;94871.19;5056225;28;20816;-84
2021/11/23 03:55:57;;;;;;;108.00;69.53;;;;;;;9.97;97.91;94874.00;5056439;28;20804;-83
2021/11/23 03:58:24;;;;;;;107.40;72.40;;;;;;;10.00;98.66;94873.75;5021404;28;20446;-83
2021/11/23 04:00:50;;;;;;;115.30;71.20;;;;;;;10.01;98.92;94878.03;5056178;28;20430;-83
2021/11/23 04:03:19;;;;;;;107.93;71.83;;;;;;;10.06;99.40;94879.31;5056436;28;20863;-84
2021/11/23 04:05:46;;;;;;;106.10;68.67;;;;;;;10.10;99.84;94883.34;5055848;28;20453;-84
2021/11/23 04:08:12;;;;;;;103.43;67.87;;;;;;;10.15;99.46;94880.38;5056347;28;20489;-83
2021/11/23 04:10:39;;;;;;;103.77;65.80;;;;;;;10.19;99.54;94881.78;5056313;28;20833;-83
2021/11/23 04:13:06;;;;;;;190.10;98.37;;;;;;;10.22;99.08;94881.53;5056328;28;20429;-83
2021/11/23 04:18:56;;;;;;;104.20;60.60;;;;;;;10.28;98.37;94881.03;5055088;28;20433;-83
2021/11/23 04:21:23;;;;;;;90.20;60.43;;;;;;;10.33;98.29;94893.75;5056108;28;20437;-83
2021/11/23 04:23:50;;;;;;;106.63;66.20;;;;;;;10.34;98.82;94883.13;5055713;28;20434;-83
2021/11/23 04:26:17;;;;;;;91.63;63.50;;;;;;;10.35;99.02;94884.78;5055704;28;20444;-84
2021/11/23 04:28:44;;;;;;;111.47;62.90;;;;;;;10.39;98.83;94894.06;5055622;28;20480;-84
2021/11/23 04:31:11;;;;;;;96.30;64.50;;;;;;;10.40;97.92;94897.50;5055217;28;20460;-83
2021/11/23 04:33:38;;;;;;;95.43;65.27;;;;;;;10.38;98.03;94887.16;5037102;28;20461;-84
2021/11/23 04:36:06;;;;;;;107.33;64.13;;;;;;;10.40;99.14;94895.72;5055437;28;20422;-84
2021/11/23 04:38:33;;;;;;;103.60;59.07;;;;;;;10.39;98.75;94896.69;5020858;28;20469;-84
2021/11/23 04:41:00;;;;;;;102.77;61.80;;;;;;;10.39;98.54;94896.69;5055605;28;20445;-84
2021/11/23 04:43:27;;;;;;;103.47;65.30;;;;;;;10.39;98.20;94890.59;5036944;28;20433;-83
2021/11/23 04:45:56;;;;;;;100.90;65.53;;;;;;;10.37;99.12;94880.25;5055017;28;20932;-82
2021/11/23 04:48:23;;;;;;;103.90;66.33;;;;;;;10.41;99.29;94886.09;5055050;28;20507;-83
2021/11/23 04:50:50;;;;;;;102.93;66.50;;;;;;;10.39;98.94;94891.44;5055580;28;20451;-83
2021/11/23 04:53:18;;;;;;;104.33;65.37;;;;;;;10.40;98.99;94900.13;5055078;28;20802;-83
2021/11/23 04:55:45;;;;;;;100.87;65.50;;;;;;;10.41;99.28;94894.78;5055059;28;20429;-83
2021/11/23 04:58:13;;;;;;;107.80;66.30;;;;;;;10.41;98.77;94894.78;5054769;28;20448;-83
2021/11/23 05:00:40;;;;;;;106.17;66.93;;;;;;;10.42;99.52;94895.63;5055484;28;20427;-81
2021/11/23 05:03:07;;;;;;;111.43;66.13;;;;;;;10.44;98.83;94899.78;5055330;28;20454;-82
2021/11/23 05:05:34;;;;;;;102.23;66.43;;;;;;;10.43;99.81;94905.16;5054985;28;20434;-81
2021/11/23 05:08:01;;;;;;;102.57;64.40;;;;;;;10.46;99.75;94905.72;5054830;28;20495;-81
2021/11/23 05:10:29;;;;;;;93.90;60.42;;;;;;;10.49;99.70;94905.47;5054653;28;20451;-82
2021/11/23 05:12:56;;;;;;;96.73;60.60;;;;;;;10.50;99.54;94909.75;5052199;28;20444;-84
2021/11/23 05:15:23;;;;;;;95.57;61.30;;;;;;;10.53;99.47;94911.28;5054589;28;20908;-84
2021/11/23 05:17:50;;;;;;;88.17;59.90;;;;;;;10.56;99.48;94908.38;5054786;28;20457;-84
2021/11/23 05:20:17;;;;;;;97.77;61.20;;;;;;;10.58;99.52;94909.09;5054644;28;20436;-85
2021/11/23 05:22:44;;;;;;;82.00;58.30;;;;;;;10.56;99.86;94911.00;5055131;28;20444;-85
2021/11/23 05:25:12;;;;;;;88.63;59.30;;;;;;;10.60;100.00;94922.06;5055179;28;20433;-85
2021/11/23 05:27:41;;;;;;;86.13;56.57;;;;;;;10.61;99.19;94921.13;5055099;28;20849;-85
2021/11/23 05:30:09;;;;;;;96.90;57.07;;;;;;;10.60;99.91;94916.84;5054588;28;20434;-84
2021/11/23 05:32:36;;;;;;;109.63;62.03;;;;;;;10.61;100.00;94918.50;5055014;28;20425;-85
2021/11/23 05:35:04;;;;;;;93.40;63.33;;;;;;;10.63;100.00;94916.56;5054180;28;20448;-85
2021/11/23 05:37:31;;;;;;;89.83;58.77;;;;;;;10.67;100.00;94928.47;5020546;28;20438;-86
2021/11/23 05:39:58;;;;;;;101.50;60.43;;;;;;;10.68;100.00;94919.63;5054833;28;20893;-85
2021/11/23 05:42:25;;;;;;;91.57;58.80;;;;;;;10.68;100.00;94928.34;5054698;28;20430;-86
2021/11/23 05:44:53;;;;;;;88.90;61.47;;;;;;;10.68;100.00;94925.72;5054675;28;20429;-84
2021/11/23 05:47:20;;;;;;;95.73;57.43;;;;;;;10.68;100.00;94938.00;5054242;28;20532;-84
2021/11/23 05:49:47;;;;;;;93.80;57.80;;;;;;;10.67;100.00;94936.34;5054651;28;20476;-83
2021/11/23 05:52:14;;;;;;;91.37;57.50;;;;;;;10.67;100.00;94936.34;5054768;28;20430;-85
2021/11/23 05:54:41;;;;;;;82.80;53.50;;;;;;;10.69;100.00;94951.00;5054574;28;20831;-85
2021/11/23 05:57:08;;;;;;;88.67;56.70;;;;;;;10.69;100.00;94953.63;5018613;28;20442;-85
2021/11/23 05:59:35;;;;;;;84.33;52.30;;;;;;;10.70;100.00;94954.47;5017917;28;20450;-84
2021/11/23 06:02:04;;;;;;;73.73;52.30;;;;;;;10.70;100.00;94959.72;5053103;28;20440;-85
2021/11/23 06:04:31;;;;;;;76.43;50.77;;;;;;;10.72;100.00;94956.00;5052941;28;20468;-84
2021/11/23 06:06:58;;;;;;;79.00;51.27;;;;;;;10.73;100.00;94967.34;5053197;28;20449;-84
2021/11/23 06:09:25;;;;;;;82.67;54.40;;;;;;;10.75;100.00;94973.28;5033587;28;20496;-84
2021/11/23 06:11:52;;;;;;;97.70;58.53;;;;;;;10.75;100.00;94971.50;5053027;28;20524;-84
2021/11/23 06:14:19;;;;;;;79.70;54.80;;;;;;;10.78;100.00;94980.91;5052844;28;20449;-84
2021/11/23 06:16:47;;;;;;;81.83;56.13;;;;;;;10.71;100.00;94977.97;5053176;28;20519;-83
2021/11/23 06:19:15;;;;;;;90.37;59.30;;;;;;;10.76;100.00;94986.28;5053017;28;20467;-83
2021/11/23 06:21:42;;;;;;;96.23;60.77;;;;;;;10.73;100.00;94981.28;5052815;28;20950;-84
2021/11/23 06:24:11;;;;;;;85.73;55.77;;;;;;;10.68;100.00;94983.44;5052854;28;20931;-84
2021/11/23 06:26:38;;;;;;;84.33;50.17;;;;;;;10.68;100.00;94988.69;5053052;28;20445;-86
2021/11/23 06:29:05;;;;;;;64.83;49.97;;;;;;;10.69;100.00;94986.91;5053223;28;20829;-85
2021/11/23 06:31:33;;;;;;;79.50;60.28;;;;;;;10.74;100.00;94987.38;5052950;28;20446;-85
2021/11/23 06:34:07;;;;;;;95.40;65.80;;;;;;;10.73;100.00;94990.97;5052609;28;20199;-84
2021/11/23 06:36:35;;;;;;;75.63;55.90;;;;;;;10.76;100.00;94994.16;5054604;28;20430;-86
2021/11/23 06:39:03;;;;;;;83.27;56.33;;;;;;;11.01;100.00;94989.47;5019271;28;20477;-85
2021/11/23 06:41:30;;;;;;;93.03;66.90;;;;;;;11.00;100.00;94996.50;5054241;28;20427;-86
2021/11/23 06:44:01;;;;;;;84.77;60.63;;;;;;;11.04;100.00;94995.28;5018953;28;20437;-85
2021/11/23 06:46:28;;;;;;;88.07;62.07;;;;;;;11.04;100.00;94997.91;5054082;28;20817;-85
2021/11/23 06:48:55;;;;;;;90.17;63.70;;;;;;;11.06;100.00;95003.88;5018294;28;20522;-85
2021/11/23 06:51:22;;;;;;;85.73;61.77;;;;;;;11.08;100.00;95012.44;5052922;28;20818;-84
2021/11/23 06:53:51;;;;;;;84.00;60.27;;;;;;;11.08;100.00;95007.19;5052841;28;20438;-84
2021/11/23 06:56:18;;;;;;;85.40;61.20;;;;;;;11.07;100.00;95007.31;5052338;28;20995;-84
2021/11/23 06:58:45;;;;;;;85.53;60.53;;;;;;;11.09;100.00;95011.47;5034190;28;20942;-83
2021/11/23 07:01:12;;;;;;;99.87;63.70;;;;;;;11.07;100.00;95013.41;5052507;28;20453;-84
2021/11/23 07:03:39;;;;;;;71.73;47.87;;;;;;;11.04;100.00;95020.72;5052403;28;20445;-84
2021/11/23 07:06:06;;;;;;;75.00;44.60;;;;;;;11.03;100.00;95019.88;5052488;28;20816;-83
2021/11/23 07:08:33;;;;;;;67.67;42.73;;;;;;;10.87;100.00;95019.50;5052492;28;21106;-84
2021/11/23 07:11:01;;;;;;;69.10;45.60;;;;;;;10.83;100.00;95028.59;5054937;28;20466;-84
2021/11/23 07:13:28;;;;;;;60.53;38.80;;;;;;;10.77;100.00;95034.34;5053243;28;20884;-83
2021/11/23 07:15:55;;;;;;;39.40;28.93;;;;;;;10.70;100.00;95026.16;5053038;28;20932;-84
2021/11/23 07:18:22;;;;;;;40.00;30.70;;;;;;;10.58;100.00;95031.59;5053386;28;20528;-84
2021/11/23 07:20:49;;;;;;;53.83;47.87;;;;;;;10.53;100.00;95038.03;5056444;28;20473;-84
2021/11/23 07:23:16;;;;;;;45.30;36.60;;;;;;;10.48;100.00;95034.97;5057370;28;20472;-84
2021/11/23 07:25:44;;;;;;;26.40;21.13;;;;;;;10.46;100.00;95046.56;5057584;28;20429;-84
2021/11/23 07:28:12;;;;;;;25.23;20.20;;;;;;;10.43;100.00;95038.94;5057309;28;20545;-84
2021/11/23 07:30:39;;;;;;;28.10;18.60;;;;;;;10.44;100.00;95053.72;5056720;28;20433;-84
2021/11/23 07:33:06;;;;;;;23.52;17.05;;;;;;;10.44;100.00;95061.59;5056474;28;20452;-84
2021/11/23 07:35:33;;;;;;;22.80;17.27;;;;;;;10.38;100.00;95057.66;5057136;28;20240;-85
2021/11/23 07:38:00;;;;;;;26.63;18.57;;;;;;;10.40;100.00;95065.38;5056620;28;20487;-84
2021/11/23 07:40:27;;;;;;;25.13;17.60;;;;;;;10.41;100.00;95059.22;5056738;28;20441;-84
2021/11/23 07:42:55;;;;;;;18.90;12.73;;;;;;;10.36;100.00;95066.59;5056767;28;20439;-85
2021/11/23 07:45:24;;;;;;;13.23;11.00;;;;;;;10.31;100.00;95069.59;5057068;28;20433;-85
2021/11/23 07:47:51;;;;;;;26.50;15.30;;;;;;;10.27;100.00;95065.56;5056831;28;20443;-85
2021/11/23 07:50:18;;;;;;;19.63;12.83;;;;;;;10.23;100.00;95077.25;5021403;28;20481;-84
2021/11/23 07:52:45;;;;;;;19.33;14.60;;;;;;;10.17;100.00;95080.34;5057480;28;20437;-85
2021/11/23 07:55:13;;;;;;;12.70;9.97;;;;;;;10.12;100.00;95082.47;5057041;28;20433;-84
2021/11/23 07:57:40;;;;;;;12.13;9.57;;;;;;;10.03;100.00;95089.31;5056798;28;20781;-85
2021/11/23 08:00:08;;;;;;;17.07;11.60;;;;;;;9.91;100.00;95085.88;5056683;28;20872;-84
2021/11/23 08:02:37;;;;;;;16.23;10.63;;;;;;;9.89;100.00;95090.41;5056608;28;20524;-84
2021/11/23 08:05:04;;;;;;;19.60;12.93;;;;;;;9.85;100.00;95089.00;5056989;28;20457;-84
2021/11/23 08:07:31;;;;;;;24.43;15.97;;;;;;;9.84;100.00;95089.94;5021967;28;20471;-84
2021/11/23 08:09:58;;;;;;;21.53;15.20;;;;;;;9.88;100.00;95093.16;5056364;28;20997;-84
2021/11/23 08:12:26;;;;;;;20.60;14.00;;;;;;;9.94;100.00;95103.97;5056765;28;20438;-84
2021/11/23 08:14:56;;;;;;;12.93;11.37;;;;;;;9.98;100.00;95103.75;5056342;28;21369;-85
2021/11/23 08:17:23;;;;;;;13.57;11.57;;;;;;;9.97;100.00;95105.53;5056048;28;20527;-85
2021/11/23 08:19:52;;;;;;;10.20;9.10;;;;;;;9.95;100.00;95104.81;5056356;28;20453;-85
2021/11/23 08:22:19;;;;;;;10.53;9.43;;;;;;;9.92;100.00;95108.50;5056298;28;20437;-84
2021/11/23 08:31:29;;;;;;;14.33;11.23;;;;;;;9.77;100.00;95116.72;5054886;28;20416;-84
2021/11/23 08:33:59;;;;;;;11.53;10.33;;;;;;;9.68;100.00;95113.03;5055545;28;20432;-83
2021/11/23 08:36:27;;;;;;;11.63;10.43;;;;;;;9.62;100.00;95116.97;5056007;28;20539;-85
2021/11/23 08:38:54;;;;;;;10.90;9.90;;;;;;;9.58;100.00;95120.78;5056879;28;20457;-83
2021/11/23 08:41:23;;;;;;;11.70;10.53;;;;;;;9.49;100.00;95113.63;5055995;28;20437;-85
2021/11/23 08:43:50;;;;;;;11.37;10.33;;;;;;;9.55;100.00;95126.28;5055708;28;20451;-83
2021/11/23 08:46:17;;;;;;;13.00;10.67;;;;;;;9.54;100.00;95121.13;5055497;28;20454;-84
2021/11/23 08:48:43;;;;;;;11.97;10.77;;;;;;;9.53;100.00;95120.28;5055034;28;20474;-85
2021/11/23 08:51:15;;;;;;;12.57;11.37;;;;;;;9.53;100.00;95124.69;5054937;28;20450;-84
2021/11/23 08:53:43;;;;;;;16.97;14.10;;;;;;;9.54;100.00;95123.75;5055412;28;20433;-83
2021/11/23 08:56:10;;;;;;;17.70;14.93;;;;;;;9.52;100.00;95133.50;5055129;28;20440;-84
2021/11/23 08:58:38;;;;;;;26.53;17.70;;;;;;;9.55;100.00;95134.13;5055186;28;20429;-85
2021/11/23 09:01:05;;;;;;;16.90;14.23;;;;;;;9.49;100.00;95131.97;5055483;28;20844;-84
2021/11/23 09:03:32;;;;;;;16.20;14.60;;;;;;;9.53;100.00;95141.25;5055139;28;20932;-84
2021/11/23 09:06:00;;;;;;;16.97;15.17;;;;;;;9.61;100.00;95132.81;5055071;28;20433;-86
2021/11/23 09:08:27;;;;;;;15.97;14.30;;;;;;;9.57;100.00;95126.16;5053176;28;20769;-84
2021/11/23 09:10:55;;;;;;;19.03;15.17;;;;;;;9.62;100.00;95134.50;5054592;28;20493;-86
2021/11/23 09:13:23;;;;;;;18.03;16.20;;;;;;;9.58;100.00;95133.06;5054709;28;20453;-85
2021/11/23 09:15:50;;;;;;;21.23;17.30;;;;;;;9.58;100.00;95133.06;5054765;28;20444;-85
2021/11/23 09:18:17;;;;;;;19.57;16.10;;;;;;;9.53;100.00;95119.47;5054421;28;20449;-86
2021/11/23 09:20:44;;;;;;;19.03;16.93;;;;;;;9.54;100.00;95131.59;5054091;28;20451;-85
2021/11/23 09:23:13;;;;;;;29.10;18.90;;;;;;;9.59;100.00;95127.69;5053581;28;20492;-85
2021/11/23 09:25:41;;;;;;;17.30;15.40;;;;;;;9.59;100.00;95129.50;5053982;28;20455;-85
2021/11/23 09:28:11;;;;;;;24.70;17.10;;;;;;;9.59;100.00;95137.34;5048801;28;21185;-86
2021/11/23 09:30:39;;;;;;;22.60;14.77;;;;;;;9.51;100.00;95137.06;5053712;28;20999;-85
2021/11/23 09:33:08;;;;;;;16.40;14.90;;;;;;;9.47;100.00;95141.72;5053955;28;20445;-85
2021/11/23 09:35:35;;;;;;;21.50;16.57;;;;;;;9.50;100.00;95138.03;5053504;28;20448;-84
2021/11/23 09:38:02;;;;;;;18.40;16.07;;;;;;;9.52;100.00;95143.97;5053159;28;20445;-84
2021/11/23 09:40:31;;;;;;;16.57;14.87;;;;;;;9.53;100.00;95140.41;5034826;28;20476;-85
2021/11/23 09:42:58;;;;;;;18.23;14.87;;;;;;;9.58;100.00;95135.69;5053535;28;20450;-84
2021/11/23 09:45:27;;;;;;;22.60;18.47;;;;;;;9.61;100.00;95138.91;5053291;28;20451;-85
2021/11/23 09:47:55;;;;;;;26.50;17.17;;;;;;;9.61;100.00;95138.91;5053253;28;20956;-85
2021/11/23 09:50:22;;;;;;;20.93;16.10;;;;;;;9.65;100.00;95133.41;5054715;28;20512;-86
2021/11/23 09:52:49;;;;;;;20.87;17.07;;;;;;;9.65;100.00;95136.88;5054207;28;20444;-85
2021/11/23 09:55:18;;;;;;;19.30;15.63;;;;;;;9.60;100.00;95126.75;5054069;28;20806;-85
2021/11/23 09:57:45;;;;;;;21.50;18.13;;;;;;;9.68;100.00;95123.53;5053896;28;20444;-83
2021/11/23 10:00:30;;;;;;;20.23;16.73;;;;;;;9.72;100.00;95124.13;5054060;28;20444;-85
2021/11/23 10:03:02;;;;;;;20.10;16.90;;;;;;;9.72;100.00;95126.75;4992864;28;20454;-85
2021/11/23 10:05:34;;;;;;;21.23;17.50;;;;;;;9.79;100.00;95134.00;4992779;28;20531;-84
2021/11/23 10:11:24;;;;;;;22.87;17.87;;;;;;;9.78;100.00;95132.31;4979369;28;20495;-84
2021/11/23 10:13:54;;;;;;;22.20;16.37;;;;;;;9.77;100.00;95129.81;4991868;28;20444;-86
2021/11/23 10:16:24;;;;;;;35.10;22.13;;;;;;;9.75;100.00;95132.56;4990907;28;20436;-85
2021/11/23 10:18:52;;;;;;;28.93;20.20;;;;;;;9.81;100.00;95126.84;4991385;28;20448;-84
2021/11/23 10:21:21;;;;;;;26.40;19.77;;;;;;;9.85;100.00;95123.06;4991021;28;20943;-85
2021/11/23 10:23:52;;;;;;;32.60;18.23;;;;;;;9.88;100.00;95117.56;4990959;28;20440;-85
2021/11/23 10:26:20;;;;;;;24.50;18.60;;;;;;;9.92;100.00;95124.25;4990918;28;20471;-85
2021/11/23 10:28:50;;;;;;;21.80;17.00;;;;;;;9.92;100.00;95126.03;4990893;28;20453;-84
2021/11/23 10:31:19;;;;;;;20.47;16.13;;;;;;;9.93;100.00;95131.16;4991083;28;20480;-85
2021/11/23 10:33:49;;;;;;;26.30;20.40;;;;;;;9.97;100.00;95128.28;4992461;28;20447;-86
2021/11/23 10:36:19;;;;;;;26.37;18.63;;;;;;;9.99;100.00;95123.75;4976235;28;20540;-86
2021/11/23 10:38:46;;;;;;;34.77;25.73;;;;;;;10.10;100.00;95129.81;4992449;28;20455;-85
2021/11/23 10:41:16;;;;;;;26.93;21.77;;;;;;;10.19;100.00;95126.47;5048219;28;20464;-85
2021/11/23 11:03:40;;;;;;;24.27;20.57;;;;;;;10.58;100.00;95129.50;5111680;27;20885;-78
2021/11/23 11:06:08;;;;;;;25.10;20.73;;;;;;;10.59;100.00;95130.34;5111293;28;20439;-75
2021/11/23 11:08:38;;;;;;;19.73;17.63;;;;;;;10.52;100.00;95130.00;5112106;28;20427;-76
2021/11/23 11:11:07;;;;;;;21.40;17.50;;;;;;;10.52;100.00;95132.63;5092580;28;20431;-76
2021/11/23 11:13:35;;;;;;;20.33;17.80;;;;;;;10.51;100.00;95134.41;5091745;28;20470;-76
2021/11/23 11:16:04;;;;;;;22.40;18.60;;;;;;;10.39;100.00;95130.13;5109611;28;20960;-76
2021/11/23 11:18:31;;;;;;;22.07;18.37;;;;;;;10.36;99.91;95134.81;5109786;28;20496;-76
2021/11/23 11:21:02;;;;;;;21.20;17.87;;;;;;;10.28;100.00;95124.94;5110057;28;20443;-76
2021/11/23 11:23:31;;;;;;;27.80;20.67;;;;;;;10.23;100.00;95129.72;5091092;28;20443;-76
2021/11/23 11:28:55;;;;;;;21.13;16.77;;;;;;;10.16;100.00;95136.38;5046879;28;20438;-76
2021/11/23 11:31:47;;;;;;;21.70;15.60;;;;;;;10.12;100.00;95124.44;5046772;28;20856;-77
2021/11/23 11:34:23;;;;;;;23.57;18.50;;;;;;;10.10;100.00;95134.22;5046846;28;20548;-76
2021/11/23 11:37:03;;;;;;;30.67;22.10;;;;;;;10.01;100.00;95129.69;5046878;28;20532;-76
2021/11/23 11:39:50;;;;;;;27.97;23.10;;;;;;;9.91;100.00;95129.59;5046506;28;20445;-76
2021/11/23 11:42:49;;;;;;;27.37;23.00;;;;;;;9.98;100.00;95140.44;5047108;28;20532;-76
2021/11/23 11:45:16;;;;;;;27.50;20.30;;;;;;;9.99;100.00;95132.44;5047097;28;20445;-76
2021/11/23 11:47:45;;;;;;;25.63;19.83;;;;;;;9.98;100.00;95143.06;5047395;28;20942;-76
2021/11/23 11:50:18;;;;;;;26.70;19.23;;;;;;;9.93;100.00;95143.41;5046804;28;20481;-76
2021/11/23 11:53:15;;;;;;;23.40;18.63;;;;;;;9.92;100.00;95147.00;5014099;28;20493;-76
2021/11/23 11:55:50;;;;;;;22.23;16.60;;;;;;;9.84;100.00;95144.16;5027339;28;21031;-76
2021/11/23 11:58:57;;;;;;;24.23;18.20;;;;;;;9.85;100.00;95146.66;5026873;28;20452;-77
2021/11/23 12:01:33;;;;;;;28.50;19.90;;;;;;;9.86;100.00;95145.69;4968227;28;20547;-76
2021/11/23 12:04:13;;;;;;;27.60;20.80;;;;;;;9.86;100.00;95153.56;4942551;29;20506;-76
2021/11/23 12:07:09;;;;;;;23.67;18.73;;;;;;;9.86;100.00;95150.09;5019147;28;20799;-76
2021/11/23 12:09:42;;;;;;;32.37;22.20;;;;;;;9.76;100.00;95147.34;5033427;28;20951;-76